createdAt,value
2022-08-21T00:00:32.820Z,11.07
2022-08-21T00:03:07.881Z,13.67
2022-08-21T00:05:45.762Z,13.10
2022-08-21T00:08:16.933Z,12.17
2022-08-21T00:10:48.179Z,15.90
2022-08-21T00:13:20.719Z,15.30
2022-08-21T00:15:52.788Z,11.60
2022-08-21T00:18:23.706Z,13.13
2022-08-21T00:20:56.649Z,13.83
2022-08-21T00:23:27.114Z,13.47
2022-08-21T00:25:57.313Z,11.93
2022-08-21T00:28:27.308Z,12.30
2022-08-21T00:30:57.728Z,14.50
2022-08-21T00:33:28.113Z,13.83
2022-08-21T00:36:01.407Z,15.10
2022-08-21T00:38:31.398Z,13.17
2022-08-21T00:41:27.587Z,17.30
2022-08-21T00:43:58.669Z,17.20
2022-08-21T00:46:28.964Z,17.73
2022-08-21T00:48:59.853Z,16.80
2022-08-21T00:51:40.304Z,14.80
2022-08-21T00:54:18.311Z,12.23
2022-08-21T00:56:53.805Z,12.17
2022-08-21T00:59:27.192Z,15.13
2022-08-21T01:01:57.695Z,16.63
2022-08-21T01:04:28.126Z,13.87
2022-08-21T01:07:01.020Z,19.07
2022-08-21T01:09:31.208Z,13.60
2022-08-21T01:12:01.346Z,15.50
2022-08-21T01:14:32.484Z,17.27
2022-08-21T01:17:05.593Z,18.43
2022-08-21T01:19:36.156Z,18.50
2022-08-21T01:22:10.863Z,17.53
2022-08-21T01:24:40.929Z,13.33
2022-08-21T01:27:11.709Z,16.90
2022-08-21T01:29:48.753Z,18.80
2022-08-21T01:32:22.225Z,15.20
2022-08-21T01:34:55.960Z,14.80
2022-08-21T01:37:29.111Z,14.20
2022-08-21T01:39:59.229Z,18.90
2022-08-21T01:42:29.769Z,14.60
2022-08-21T01:45:00.193Z,18.30
2022-08-21T01:47:30.318Z,19.07
2022-08-21T01:50:00.502Z,18.37
2022-08-21T01:52:33.210Z,17.20
2022-08-21T01:55:03.366Z,15.63
2022-08-21T01:57:33.968Z,14.00
2022-08-21T02:00:04.679Z,15.23
2022-08-21T02:02:42.551Z,17.53
2022-08-21T02:05:16.269Z,15.27
2022-08-21T02:07:52.976Z,12.73
2022-08-21T02:10:27.588Z,14.20
2022-08-21T02:12:57.816Z,19.47
2022-08-21T02:15:28.334Z,13.30
2022-08-21T02:18:01.621Z,19.70
2022-08-21T02:20:35.511Z,13.53
2022-08-21T02:23:11.145Z,15.83
2022-08-21T02:25:42.150Z,13.40
2022-08-21T02:28:16.989Z,11.97
2022-08-21T02:30:53.405Z,14.30
2022-08-21T02:33:23.502Z,18.17
2022-08-21T02:35:54.139Z,14.43
2022-08-21T02:38:31.265Z,15.53
2022-08-21T02:41:01.743Z,18.10
2022-08-21T02:43:32.238Z,13.13
2022-08-21T02:46:02.418Z,13.53
2022-08-21T02:48:37.819Z,18.40
2022-08-21T02:51:12.327Z,12.70
2022-08-21T02:53:46.710Z,11.10
2022-08-21T02:56:19.602Z,13.90
2022-08-21T02:58:52.774Z,16.80
2022-08-21T03:01:24.748Z,12.03
2022-08-21T03:03:55.225Z,17.03
2022-08-21T03:06:26.614Z,16.90
2022-08-21T03:08:59.289Z,17.70
2022-08-21T03:11:29.571Z,14.03
2022-08-21T03:13:59.658Z,11.07
2022-08-21T03:16:34.373Z,13.30
2022-08-21T03:19:05.991Z,15.50
2022-08-21T03:21:36.007Z,16.53
2022-08-21T03:24:10.482Z,14.70
2022-08-21T03:26:41.444Z,18.30
2022-08-21T03:29:11.653Z,16.00
2022-08-21T03:31:41.625Z,13.47
2022-08-21T03:34:11.760Z,15.10
2022-08-21T03:36:41.901Z,14.77
2022-08-21T03:39:14.649Z,17.53
2022-08-21T03:41:44.993Z,14.40
2022-08-21T03:44:15.033Z,12.43
2022-08-21T03:46:44.949Z,17.07
2022-08-21T03:49:14.938Z,13.43
2022-08-21T03:51:44.929Z,19.67
2022-08-21T03:54:17.579Z,17.33
2022-08-21T03:56:48.477Z,16.10
2022-08-21T03:59:18.742Z,13.53
2022-08-21T04:01:57.017Z,22.47
2022-08-21T04:04:27.675Z,14.83
2022-08-21T04:06:58.258Z,14.80
2022-08-21T04:09:31.357Z,13.83
2022-08-21T04:12:04.119Z,18.87
2022-08-21T04:14:34.093Z,16.73
2022-08-21T04:17:04.129Z,15.37
2022-08-21T04:19:34.246Z,16.77
2022-08-21T04:22:04.289Z,12.83
2022-08-21T04:24:36.882Z,15.50
2022-08-21T04:27:07.180Z,17.00
2022-08-21T04:29:40.007Z,14.70
2022-08-21T04:32:10.368Z,18.30
2022-08-21T04:34:40.469Z,25.40
2022-08-21T04:37:10.459Z,13.80
2022-08-21T04:39:43.155Z,15.47
2022-08-21T04:42:13.106Z,18.77
2022-08-21T04:44:43.122Z,18.07
2022-08-21T04:47:13.129Z,15.40
2022-08-21T04:49:43.089Z,33.10
2022-08-21T04:52:14.769Z,24.80
2022-08-21T04:54:54.796Z,13.60
2022-08-21T04:57:39.718Z,14.50
2022-08-21T05:00:20.330Z,14.90
2022-08-21T05:02:55.348Z,17.10
2022-08-21T05:05:25.722Z,24.53
2022-08-21T05:07:57.229Z,17.77
2022-08-21T05:10:32.386Z,23.63
2022-08-21T05:13:04.361Z,19.07
2022-08-21T05:15:34.411Z,18.37
2022-08-21T05:18:04.498Z,17.13
2022-08-21T05:20:35.422Z,17.23
2022-08-21T05:23:11.314Z,22.20
2022-08-21T05:25:45.051Z,15.57
2022-08-21T05:28:16.434Z,18.17
2022-08-21T05:30:46.718Z,11.13
2022-08-21T05:33:16.921Z,12.70
2022-08-21T05:35:46.889Z,11.83
2022-08-21T05:38:18.570Z,12.80
2022-08-21T05:40:51.375Z,7.97
2022-08-21T05:43:21.470Z,8.13
2022-08-21T05:45:51.544Z,6.67
2022-08-21T05:48:27.373Z,10.60
2022-08-21T05:50:57.561Z,8.33
2022-08-21T05:53:28.666Z,6.20
2022-08-21T05:56:01.382Z,6.43
2022-08-21T05:58:31.321Z,5.70
2022-08-21T06:01:01.327Z,8.00
2022-08-21T06:03:36.236Z,7.37
2022-08-21T06:06:07.362Z,8.13
2022-08-21T06:08:37.904Z,6.87
2022-08-21T06:11:12.593Z,7.07
2022-08-21T06:13:43.068Z,5.13
2022-08-21T06:16:17.531Z,10.33
2022-08-21T06:18:49.378Z,16.87
2022-08-21T06:21:19.951Z,4.83
2022-08-21T06:23:50.094Z,8.23
2022-08-21T06:26:23.223Z,14.03
2022-08-21T06:28:53.371Z,5.33
2022-08-21T06:31:28.061Z,6.20
2022-08-21T06:33:58.797Z,7.90
2022-08-21T06:36:28.898Z,6.60
2022-08-21T06:38:58.891Z,5.60
2022-08-21T06:41:39.052Z,8.77
2022-08-21T06:44:09.260Z,5.70
2022-08-21T06:46:40.585Z,6.63
2022-08-21T06:49:17.517Z,9.00
2022-08-21T06:51:51.546Z,5.60
2022-08-21T06:54:21.500Z,11.27
2022-08-21T06:56:54.119Z,9.60
2022-08-21T06:59:24.139Z,9.73
2022-08-21T07:01:54.175Z,14.20
2022-08-21T07:04:24.353Z,6.97
2022-08-21T07:06:54.434Z,5.57
2022-08-21T07:09:25.025Z,5.27
2022-08-21T07:12:00.057Z,7.53
2022-08-21T07:14:30.290Z,5.83
2022-08-21T07:17:00.354Z,4.80
2022-08-21T07:19:30.318Z,5.13
2022-08-21T07:22:05.141Z,6.80
2022-08-21T07:24:35.139Z,6.70
2022-08-21T07:27:10.029Z,11.07
2022-08-21T07:29:40.365Z,11.10
2022-08-21T07:32:10.404Z,12.40
2022-08-21T07:34:40.436Z,5.43
2022-08-21T07:37:10.486Z,5.10
2022-08-21T07:39:40.869Z,5.73
2022-08-21T07:42:13.638Z,8.50
2022-08-21T07:44:43.857Z,16.33
2022-08-21T07:47:13.939Z,6.77
2022-08-21T07:49:43.906Z,5.77
2022-08-21T07:52:13.915Z,5.80
2022-08-21T07:54:43.893Z,5.20
2022-08-21T07:57:16.909Z,5.67
2022-08-21T07:59:51.641Z,6.23
2022-08-21T08:02:28.166Z,6.90
2022-08-21T08:05:02.513Z,8.53
2022-08-21T08:07:32.898Z,17.00
2022-08-21T08:10:02.862Z,8.80
2022-08-21T08:12:35.439Z,8.40
2022-08-21T08:15:11.490Z,12.50
2022-08-21T08:17:41.891Z,5.63
2022-08-21T08:20:15.465Z,5.00
2022-08-21T08:22:49.992Z,7.40
2022-08-21T08:25:23.939Z,8.33
2022-08-21T08:27:56.926Z,7.70
2022-08-21T08:30:31.182Z,9.30
2022-08-21T08:33:03.240Z,8.43
2022-08-21T08:35:33.312Z,8.07
2022-08-21T08:38:03.410Z,8.70
2022-08-21T08:40:43.181Z,12.77
2022-08-21T08:43:16.927Z,9.50
2022-08-21T08:45:51.873Z,5.37
2022-08-21T08:48:43.101Z,7.60
2022-08-21T08:51:25.369Z,9.13
2022-08-21T08:54:02.356Z,8.07
2022-08-21T08:56:36.563Z,7.43
2022-08-21T08:59:18.822Z,7.30
2022-08-21T09:01:49.682Z,8.10
2022-08-21T09:04:29.666Z,9.97
2022-08-21T09:07:16.681Z,12.40
2022-08-21T09:10:07.268Z,9.43
2022-08-21T09:12:49.494Z,7.97
2022-08-21T09:15:34.388Z,8.60
2022-08-21T09:18:22.240Z,7.03
2022-08-21T09:21:03.672Z,8.53
2022-08-21T09:23:46.622Z,12.80
2022-08-21T09:26:20.101Z,7.03
2022-08-21T09:28:56.111Z,8.00
2022-08-21T09:31:33.106Z,8.43
2022-08-21T09:34:05.380Z,8.83
2022-08-21T09:36:46.868Z,8.20
2022-08-21T09:39:27.874Z,8.57
2022-08-21T09:42:03.736Z,8.83
2022-08-21T09:44:40.862Z,10.07
2022-08-21T09:47:16.167Z,11.83
2022-08-21T09:49:48.370Z,9.73
2022-08-21T09:52:24.598Z,7.60
2022-08-21T09:54:58.088Z,8.20
2022-08-21T09:57:50.403Z,7.93
2022-08-21T10:00:30.826Z,11.30
2022-08-21T10:03:19.690Z,8.00
2022-08-21T10:06:02.710Z,7.10
2022-08-21T10:08:34.055Z,8.37
2022-08-21T10:11:10.781Z,9.53
2022-08-21T10:13:59.063Z,10.20
2022-08-21T10:16:45.368Z,6.27
2022-08-21T10:19:33.133Z,9.83
2022-08-21T10:22:25.482Z,8.53
2022-08-21T10:25:08.994Z,8.63
2022-08-21T10:27:50.860Z,8.67
2022-08-21T10:30:34.870Z,10.87
2022-08-21T10:33:36.199Z,7.50
2022-08-21T10:36:21.891Z,8.73
2022-08-21T10:42:28.635Z,8.77
2022-08-21T10:45:15.026Z,11.03
2022-08-21T10:47:56.052Z,9.20
2022-08-21T10:50:39.542Z,6.37
2022-08-21T10:53:45.946Z,8.00
2022-08-21T10:56:22.868Z,11.50
2022-08-21T10:59:21.682Z,8.60
2022-08-21T11:01:58.182Z,7.60
2022-08-21T11:04:49.075Z,9.37
2022-08-21T11:07:34.246Z,6.87
2022-08-21T11:10:17.027Z,7.03
2022-08-21T11:12:57.323Z,9.20
2022-08-21T11:15:44.960Z,10.10
2022-08-21T11:18:28.765Z,9.83
2022-08-21T11:21:19.394Z,9.97
2022-08-21T11:23:56.798Z,11.60
2022-08-21T11:26:37.914Z,8.23
2022-08-21T11:29:17.425Z,7.60
2022-08-21T11:32:04.807Z,7.50
2022-08-21T11:34:58.376Z,8.53
2022-08-21T11:37:51.270Z,6.87
2022-08-21T11:40:45.448Z,9.40
2022-08-21T11:43:33.776Z,9.77
2022-08-21T11:46:19.781Z,7.57
2022-08-21T11:49:06.812Z,7.67
2022-08-21T11:51:55.424Z,12.37
2022-08-21T11:54:32.719Z,6.03
2022-08-21T11:57:09.547Z,8.53
2022-08-21T11:59:50.921Z,6.83
2022-08-21T12:02:27.461Z,12.80
2022-08-21T12:05:09.241Z,8.60
2022-08-21T12:07:43.585Z,8.70
2022-08-21T12:10:21.982Z,9.60
2022-08-21T12:12:52.598Z,7.40
2022-08-21T12:15:40.296Z,7.70
2022-08-21T12:18:25.922Z,7.87
2022-08-21T12:21:07.017Z,6.60
2022-08-21T12:23:50.358Z,7.13
2022-08-21T12:26:35.721Z,10.30
2022-08-21T12:29:17.978Z,7.93
2022-08-21T12:32:02.070Z,6.87
2022-08-21T12:34:40.938Z,8.63
2022-08-21T12:37:25.634Z,7.37
2022-08-21T12:39:59.064Z,6.53
2022-08-21T12:42:42.377Z,6.50
2022-08-21T12:45:22.706Z,10.03
2022-08-21T12:48:03.945Z,9.83
2022-08-21T12:50:41.887Z,8.60
2022-08-21T12:53:23.993Z,10.13
2022-08-21T12:55:54.922Z,8.67
2022-08-21T12:58:28.101Z,8.47
2022-08-21T13:01:06.801Z,6.20
2022-08-21T13:03:41.956Z,6.97
2022-08-21T13:06:20.383Z,7.20
2022-08-21T13:08:59.384Z,4.40
2022-08-21T13:11:32.551Z,6.30
2022-08-21T13:14:06.952Z,6.00
2022-08-21T13:16:38.350Z,5.80
2022-08-21T13:19:24.060Z,10.03
2022-08-21T13:21:55.467Z,5.50
2022-08-21T13:24:42.313Z,4.93
2022-08-21T13:27:27.741Z,5.10
2022-08-21T13:30:16.602Z,5.77
2022-08-21T13:32:52.546Z,6.20
2022-08-21T13:35:29.955Z,6.10
2022-08-21T13:38:01.311Z,5.90
2022-08-21T13:40:36.115Z,4.30
2022-08-21T13:43:07.209Z,4.97
2022-08-21T13:45:37.359Z,7.30
2022-08-21T13:48:08.877Z,7.63
2022-08-21T13:50:44.418Z,5.57
2022-08-21T13:53:27.901Z,8.77
2022-08-21T13:56:00.736Z,5.23
2022-08-21T13:58:34.305Z,5.90
2022-08-21T14:01:06.649Z,7.27
2022-08-21T14:03:45.310Z,6.43
2022-08-21T14:06:22.424Z,4.70
2022-08-21T14:08:57.447Z,5.13
2022-08-21T14:11:30.116Z,8.10
2022-08-21T14:14:05.846Z,5.20
2022-08-21T14:16:50.074Z,8.77
2022-08-21T14:19:26.287Z,4.70
2022-08-21T14:21:59.073Z,6.53
2022-08-21T14:24:35.767Z,8.10
2022-08-21T14:27:10.165Z,6.00
2022-08-21T14:29:43.909Z,7.77
2022-08-21T14:32:24.569Z,6.40
2022-08-21T14:34:55.483Z,5.67
2022-08-21T14:37:31.958Z,5.40
2022-08-21T14:40:02.786Z,4.80
2022-08-21T14:42:33.606Z,6.33
2022-08-21T14:45:18.136Z,6.73
2022-08-21T14:47:53.837Z,6.23
2022-08-21T14:50:24.093Z,6.43
2022-08-21T14:53:00.728Z,5.60
2022-08-21T14:55:31.372Z,5.80
2022-08-21T14:58:01.407Z,6.17
2022-08-21T15:00:35.882Z,5.07
2022-08-21T15:03:06.582Z,9.30
2022-08-21T15:05:36.688Z,6.37
2022-08-21T15:08:09.396Z,6.10
2022-08-21T15:10:57.116Z,8.90
2022-08-21T15:13:30.204Z,5.47
2022-08-21T15:16:00.495Z,4.77
2022-08-21T15:18:33.344Z,6.07
2022-08-21T15:21:03.333Z,6.87
2022-08-21T15:23:36.068Z,7.20
2022-08-21T15:26:10.217Z,6.63
2022-08-21T15:28:40.465Z,8.70
2022-08-21T15:31:11.070Z,5.80
2022-08-21T15:33:41.036Z,6.10
2022-08-21T15:36:11.758Z,9.70
2022-08-21T15:38:44.918Z,5.80
2022-08-21T15:41:16.197Z,8.40
2022-08-21T15:43:51.251Z,7.33
2022-08-21T15:46:24.281Z,5.57
2022-08-21T15:48:59.230Z,6.57
2022-08-21T15:51:29.811Z,5.87
2022-08-21T15:54:02.438Z,5.90
2022-08-21T15:56:41.789Z,7.17
2022-08-21T15:59:18.358Z,5.80
2022-08-21T16:01:49.465Z,8.23
2022-08-21T16:04:27.153Z,6.97
2022-08-21T16:07:04.384Z,6.10
2022-08-21T16:09:41.102Z,7.40
2022-08-21T16:12:14.782Z,5.93
2022-08-21T16:14:44.795Z,9.50
2022-08-21T16:17:15.033Z,5.47
2022-08-21T16:19:45.313Z,5.33
2022-08-21T16:22:15.353Z,9.93
2022-08-21T16:24:48.239Z,7.90
2022-08-21T16:27:19.525Z,6.27
2022-08-21T16:29:50.576Z,9.03
2022-08-21T16:32:21.441Z,5.23
2022-08-21T16:34:52.680Z,6.20
2022-08-21T16:37:25.410Z,6.00
2022-08-21T16:39:58.244Z,6.90
2022-08-21T16:42:29.721Z,5.90
2022-08-21T16:44:59.723Z,5.80
2022-08-21T16:47:29.676Z,6.40
2022-08-21T16:49:59.682Z,5.90
2022-08-21T16:52:29.926Z,5.73
2022-08-21T16:55:02.702Z,6.83
2022-08-21T16:57:33.273Z,6.23
2022-08-21T17:00:05.096Z,10.67
2022-08-21T17:02:40.158Z,6.27
2022-08-21T17:05:13.915Z,7.00
2022-08-21T17:07:45.922Z,8.57
2022-08-21T17:10:20.330Z,11.00
2022-08-21T17:12:56.528Z,6.30
2022-08-21T17:15:31.583Z,7.23
2022-08-21T17:18:02.297Z,8.20
2022-08-21T17:20:33.294Z,8.33
2022-08-21T17:23:03.465Z,7.03
2022-08-21T17:25:37.036Z,6.80
2022-08-21T17:28:07.705Z,6.83
2022-08-21T17:30:38.409Z,9.33
2022-08-21T17:33:08.469Z,10.83
2022-08-21T17:35:38.517Z,9.10
2022-08-21T17:38:08.570Z,9.93
2022-08-21T17:40:42.099Z,7.67
2022-08-21T17:43:15.365Z,10.73
2022-08-21T17:45:46.579Z,8.57
2022-08-21T17:48:16.688Z,8.50
2022-08-21T17:50:46.709Z,6.87
2022-08-21T17:53:16.682Z,6.30
2022-08-21T17:55:49.305Z,6.90
2022-08-21T17:58:20.098Z,8.80
2022-08-21T18:00:50.543Z,8.40
2022-08-21T18:03:25.081Z,7.37
2022-08-21T18:05:57.161Z,8.43
2022-08-21T18:08:27.186Z,16.97
2022-08-21T18:10:59.810Z,8.03
2022-08-21T18:13:37.903Z,8.00
2022-08-21T18:16:12.586Z,12.33
2022-08-21T18:18:46.132Z,10.00
2022-08-21T18:21:16.179Z,11.20
2022-08-21T18:23:46.946Z,6.60
2022-08-21T18:26:29.678Z,8.07
2022-08-21T18:29:03.208Z,10.70
2022-08-21T18:31:36.147Z,10.53
2022-08-21T18:34:18.184Z,7.70
2022-08-21T18:36:50.350Z,7.10
2022-08-21T18:39:35.852Z,8.63
2022-08-21T18:42:16.137Z,8.30
2022-08-21T18:44:50.766Z,10.00
2022-08-21T18:47:27.012Z,8.40
2022-08-21T18:49:58.006Z,11.23
2022-08-21T18:52:28.632Z,5.90
2022-08-21T18:54:58.790Z,13.97
2022-08-21T18:57:42.050Z,12.27
2022-08-21T19:00:21.293Z,11.40
2022-08-21T19:02:51.606Z,10.60
2022-08-21T19:05:24.339Z,12.10
2022-08-21T19:07:55.598Z,8.20
2022-08-21T19:10:28.604Z,12.30
2022-08-21T19:13:04.429Z,9.97
2022-08-21T19:15:41.271Z,11.10
2022-08-21T19:18:16.762Z,6.40
2022-08-21T19:20:47.714Z,10.47
2022-08-21T19:23:20.454Z,12.10
2022-08-21T19:26:03.622Z,7.40
2022-08-21T19:28:42.128Z,9.13
2022-08-21T19:31:23.506Z,12.17
2022-08-21T19:34:02.221Z,8.27
2022-08-21T19:36:32.428Z,7.17
2022-08-21T19:39:08.370Z,7.87
2022-08-21T19:41:45.575Z,10.33
2022-08-21T19:44:23.158Z,7.57
2022-08-21T19:46:57.575Z,8.70
2022-08-21T19:49:33.319Z,8.00
2022-08-21T19:52:07.214Z,12.50
2022-08-21T19:54:44.740Z,7.97
2022-08-21T19:57:15.666Z,8.90
2022-08-21T19:59:48.722Z,8.77
2022-08-21T20:02:21.379Z,15.40
2022-08-21T20:04:54.096Z,13.53
2022-08-21T20:10:16.129Z,11.30
2022-08-21T20:12:51.045Z,8.73
2022-08-21T20:15:25.450Z,9.90
2022-08-21T20:17:55.609Z,15.40
2022-08-21T20:20:25.708Z,17.73
2022-08-21T20:23:00.798Z,10.43
2022-08-21T20:25:42.226Z,7.90
2022-08-21T20:28:12.829Z,10.47
2022-08-21T20:30:48.393Z,11.33
2022-08-21T20:33:18.773Z,11.50
2022-08-21T20:35:51.282Z,10.27
2022-08-21T20:38:22.796Z,10.30
2022-08-21T20:40:56.704Z,9.43
2022-08-21T20:43:28.563Z,11.07
2022-08-21T20:46:02.547Z,11.70
2022-08-21T20:48:49.345Z,10.17
2022-08-21T20:51:28.826Z,13.97
2022-08-21T20:54:10.654Z,9.10
2022-08-21T20:56:54.738Z,13.57
2022-08-21T20:59:44.226Z,12.23
2022-08-21T21:02:36.215Z,12.40
2022-08-21T21:05:15.303Z,12.90
2022-08-21T21:08:00.546Z,11.10
2022-08-21T21:10:39.234Z,11.93
2022-08-21T21:13:17.888Z,10.33
2022-08-21T21:15:52.424Z,16.53
2022-08-21T21:18:36.818Z,16.40
2022-08-21T21:21:23.134Z,11.80
2022-08-21T21:24:05.078Z,12.83
2022-08-21T21:26:46.134Z,15.17
2022-08-21T21:29:27.106Z,11.50
2022-08-21T21:32:00.344Z,14.20
2022-08-21T21:34:43.658Z,12.00
2022-08-21T21:40:35.426Z,14.40
2022-08-21T21:43:19.090Z,15.57
2022-08-21T21:46:12.501Z,14.07
2022-08-21T21:49:11.526Z,14.30
2022-08-21T21:52:00.445Z,12.00
2022-08-21T21:55:03.615Z,10.30
2022-08-21T21:57:56.069Z,12.00
2022-08-21T22:00:30.138Z,12.50
2022-08-21T22:03:13.187Z,13.20
2022-08-21T22:06:09.530Z,14.97
2022-08-21T22:08:58.472Z,10.00
2022-08-21T22:11:40.472Z,14.43
2022-08-21T22:14:16.141Z,12.93
2022-08-21T22:16:52.607Z,8.97
2022-08-21T22:19:29.281Z,8.40
2022-08-21T22:22:08.828Z,11.27
2022-08-21T22:24:48.007Z,10.20
2022-08-21T22:27:24.695Z,10.70
2022-08-21T22:29:58.956Z,12.03
2022-08-21T22:32:38.617Z,11.00
2022-08-21T22:35:20.202Z,11.17
2022-08-21T22:37:54.931Z,16.47
2022-08-21T22:40:31.622Z,13.30
2022-08-21T22:43:08.802Z,14.43
2022-08-21T22:46:00.813Z,10.27
2022-08-21T22:48:36.228Z,9.60
2022-08-21T22:51:13.970Z,11.07
2022-08-21T22:53:46.330Z,12.00
2022-08-21T22:56:36.730Z,10.67
2022-08-21T22:59:13.426Z,13.30
2022-08-21T23:01:48.401Z,8.87
2022-08-21T23:04:24.675Z,9.77
2022-08-21T23:06:59.364Z,10.13
2022-08-21T23:09:38.122Z,12.50
2022-08-21T23:15:21.778Z,10.97
2022-08-21T23:18:02.777Z,11.03
2022-08-21T23:20:42.660Z,14.93
2022-08-21T23:23:22.234Z,14.37
2022-08-21T23:26:17.511Z,9.93
2022-08-21T23:29:11.444Z,15.03
2022-08-21T23:31:53.342Z,9.70
2022-08-21T23:34:29.897Z,16.20
2022-08-21T23:37:48.617Z,11.80
2022-08-21T23:40:51.410Z,11.23
2022-08-21T23:43:41.976Z,11.80
2022-08-21T23:46:40.157Z,11.37
2022-08-21T23:49:25.470Z,28.60
2022-08-21T23:52:16.147Z,13.87
2022-08-21T23:55:06.422Z,15.13
2022-08-21T23:58:00.835Z,15.17
